Tenten — V7YY7 — position and weather

sailwx.info

Track history (hours):
 
Tides and Currents Weather Stations Pressure Air Temp Water Temp Dewpoint Dewpoint Depression Visibility Wind Speed Wind Dir Waves Ship Positions

Tenten

Last reported at 2018-Jan-19 02:30 UTC. Time now 2018-Jan-19 13:32 UTC.
Position N 22°30' E 119°47'.

Length 229 m; draft 8.9 m.

Type: Cargo ship. MMSI: 538004767.

Date/timePositionNaut miles runAvg speedWind from/ knotsBaromVisibWave heightAir tempDewpointWater temp
2018-Jan-19 02:30N 22°30' E 119°47'7 7.2
2018-Jan-19 01:35N 22°35' E 119°51'210.7
2018-Jan-19 01:24N 22°37' E 119°51'510.7
2018-Jan-19 00:56N 22°42' E 119°51'510.5
2018-Jan-19 00:29N 22°47' E 119°51'510.3
2018-Jan-19 00:00N 22°52' E 119°52'611.0
2018-Jan-18 23:30N 22°57' E 119°52'611.2
2018-Jan-18 22:57N 23°04' E 119°52'511.5
2018-Jan-18 22:30N 23°09' E 119°52'911.9
2018-Jan-18 21:47N 23°17' E 119°53'312.2
2018-Jan-18 21:30N 23°21' E 119°53'612.7
2018-Jan-18 21:00N 23°27' E 119°53'713.1
2018-Jan-18 20:30N 23°34' E 119°53'713.3
2018-Jan-18 20:00N 23°40' E 119°55'  
Track history (hours):
 
Tides and Currents Weather Stations Pressure Air Temp Water Temp Dewpoint Dewpoint Depression Visibility Wind Speed Wind Dir Waves Ship Positions

Tenten

Last reported at 2018-Jan-19 02:30 UTC. Time now 2018-Jan-19 13:32 UTC.
Position N 22°30' E 119°47'.

Length 229 m; draft 8.9 m.

Type: Cargo ship. MMSI: 538004767.

Date/timePositionNaut miles runAvg speedWind from/ knotsBaromVisibWave heightAir tempDewpointWater temp
2018-Jan-19 02:30N 22°30' E 119°47'7 7.2
2018-Jan-19 01:35N 22°35' E 119°51'210.7
2018-Jan-19 01:24N 22°37' E 119°51'510.7
2018-Jan-19 00:56N 22°42' E 119°51'510.5
2018-Jan-19 00:29N 22°47' E 119°51'510.3
2018-Jan-19 00:00N 22°52' E 119°52'611.0
2018-Jan-18 23:30N 22°57' E 119°52'611.2
2018-Jan-18 22:57N 23°04' E 119°52'511.5
2018-Jan-18 22:30N 23°09' E 119°52'911.9
2018-Jan-18 21:47N 23°17' E 119°53'312.2
2018-Jan-18 21:30N 23°21' E 119°53'612.7
2018-Jan-18 21:00N 23°27' E 119°53'713.1
2018-Jan-18 20:30N 23°34' E 119°53'713.3
2018-Jan-18 20:00N 23°40' E 119°55'  

Dump ship's entire track history